ěÝzenÝ letovÚho provozu ╚eskÚ republiky
Letiste: LKLN Aktualizace: 27.10.2020 00:56:25  UTC
 METAR LKLN 27.10. 01:00 ...
METAR LKLN 270100Z AUTO 20004KT 9999 -RA SCT031 BKN051 OVC097 07/07 Q1009=